This is the latest recevied weather packets stored in our database for station/object HP1CDW-11. If no packets are shown the sender has not sent any weather packets the latest 10 day(s).
| Time | Temp. | Humidity | Pressure | Rain* | Wind** | Luminosity | Snow |
|---|---|---|---|---|---|---|---|
| 1777498074 | 31.67° C | 39% | 1005.4 hPa | - | - | - | - |
| 1777497474 | 31.67° C | 41% | 1005.4 hPa | - | - | - | - |
| 1777496874 | 31.67° C | 41% | 1005.6 hPa | - | - | - | - |
| 1777496273 | 31.67° C | 41% | 1005.7 hPa | - | - | - | - |
| 1777495673 | 32.22° C | 38% | 1005.8 hPa | - | - | - | - |
| 1777495073 | 32.22° C | 37% | 1005.8 hPa | - | - | - | - |
| 1777494473 | 32.22° C | 35% | 1005.7 hPa | - | - | - | - |
| 1777493872 | 31.67° C | 36% | 1005.8 hPa | - | - | - | - |
| 1777493272 | 32.22° C | 35% | 1005.7 hPa | - | - | - | - |
| 1777492671 | 32.22° C | 32% | 1005.3 hPa | - | - | - | - |
| 1777492071 | 32.22° C | 33% | 1005.3 hPa | - | - | - | - |
| 1777491471 | 31.67° C | 33% | 1005.4 hPa | - | - | - | - |
| 1777490871 | 32.22° C | 32% | 1005.7 hPa | - | - | - | - |
| 1777490270 | 32.22° C | 32% | 1005.9 hPa | - | - | - | - |
| 1777489670 | 32.22° C | 32% | 1006.1 hPa | - | - | - | - |
| 1777489070 | 32.22° C | 32% | 1006.2 hPa | - | - | - | - |
| 1777488469 | 32.22° C | 31% | 1006.2 hPa | - | - | - | - |
| 1777487869 | 32.22° C | 32% | 1006.5 hPa | - | - | - | - |
| 1777487269 | 32.22° C | 31% | 1006.5 hPa | - | - | - | - |
| 1777486668 | 32.22° C | 32% | 1006.9 hPa | - | - | - | - |
| 1777486068 | 32.22° C | 33% | 1007.3 hPa | - | - | - | - |
| 1777485468 | 32.22° C | 33% | 1007.5 hPa | - | - | - | - |
| 1777484868 | 32.22° C | 35% | 1007.8 hPa | - | - | - | - |
| 1777484267 | 32.78° C | 36% | 1008 hPa | - | - | - | - |
| 1777483667 | 32.78° C | 37% | 1008 hPa | - | - | - | - |
* Rain since midnight (hover to see other rain measurements)
** Current wind speed in m/s (hover to see current wind gust speed)